createdAt,value
2023-05-08T00:00:16.247Z,56.33
2023-05-08T00:03:37.239Z,56.00
2023-05-08T00:07:00.309Z,55.73
2023-05-08T00:10:22.210Z,56.13
2023-05-08T00:13:42.122Z,55.04
2023-05-08T00:17:02.925Z,55.43
2023-05-08T00:20:23.210Z,55.44
2023-05-08T00:23:47.129Z,55.40
2023-05-08T00:27:04.149Z,54.64
2023-05-08T00:30:27.075Z,54.51
2023-05-08T00:33:41.213Z,55.28
2023-05-08T00:36:48.173Z,55.24
2023-05-08T00:39:55.189Z,55.14
2023-05-08T00:43:11.725Z,54.88
2023-05-08T00:46:37.986Z,55.22
2023-05-08T00:49:52.005Z,54.95
2023-05-08T00:53:10.990Z,55.61
2023-05-08T00:56:37.935Z,55.64
2023-05-08T00:59:56.410Z,56.22
2023-05-08T01:03:23.425Z,56.50
2023-05-08T01:06:39.753Z,55.78
2023-05-08T01:10:03.100Z,56.55
2023-05-08T01:13:52.388Z,56.05
2023-05-08T01:17:18.219Z,56.77
2023-05-08T01:20:32.453Z,57.46
2023-05-08T01:24:19.184Z,56.95
2023-05-08T01:27:54.915Z,56.97
2023-05-08T01:31:15.862Z,56.97
2023-05-08T01:34:27.066Z,57.16
2023-05-08T01:37:50.455Z,57.12
2023-05-08T01:41:16.412Z,57.21
2023-05-08T01:44:28.116Z,56.86
2023-05-08T01:47:38.447Z,57.33
2023-05-08T01:50:49.658Z,57.01
2023-05-08T01:54:05.918Z,57.42
2023-05-08T01:57:30.025Z,56.88
2023-05-08T02:00:55.152Z,57.75
2023-05-08T02:04:14.957Z,57.96
2023-05-08T02:07:34.277Z,59.15
2023-05-08T02:10:52.863Z,60.46
2023-05-08T02:14:22.034Z,61.35
2023-05-08T02:17:40.292Z,62.42
2023-05-08T02:21:05.942Z,62.46
2023-05-08T02:24:28.107Z,62.22
2023-05-08T02:27:46.974Z,61.98
2023-05-08T02:31:08.854Z,62.39
2023-05-08T02:34:34.826Z,61.56
2023-05-08T02:37:51.902Z,61.86
2023-05-08T02:41:16.215Z,61.55
2023-05-08T02:44:37.165Z,62.32
2023-05-08T02:48:05.163Z,63.93
2023-05-08T02:51:50.984Z,63.53
2023-05-08T02:55:41.681Z,63.17
2023-05-08T02:59:14.599Z,63.28
2023-05-08T03:02:57.102Z,63.10
2023-05-08T03:06:17.175Z,64.18
2023-05-08T03:09:28.856Z,64.37
2023-05-08T03:12:43.119Z,64.10
2023-05-08T03:16:01.822Z,64.31
2023-05-08T03:19:26.006Z,63.86
2023-05-08T03:22:44.852Z,64.13
2023-05-08T03:26:02.661Z,64.51
2023-05-08T03:29:26.621Z,64.86
2023-05-08T03:32:48.537Z,64.24
2023-05-08T03:36:11.758Z,64.28
2023-05-08T03:39:34.462Z,58.82
2023-05-08T03:42:56.432Z,58.72
2023-05-08T03:46:18.483Z,56.86
2023-05-08T03:49:41.650Z,56.04
2023-05-08T03:53:01.651Z,56.09
2023-05-08T03:56:26.026Z,56.07
2023-05-08T04:05:46.623Z,54.30
2023-05-08T04:09:25.818Z,53.80
2023-05-08T04:13:05.242Z,53.99
2023-05-08T04:16:28.320Z,53.72
2023-05-08T04:19:53.151Z,53.50
2023-05-08T04:56:04.753Z,50.40
2023-05-08T04:59:36.596Z,49.82
2023-05-08T05:03:03.696Z,50.58
2023-05-08T05:06:32.661Z,51.14
2023-05-08T05:09:37.561Z,49.73
2023-05-08T05:13:02.905Z,49.90
2023-05-08T05:16:08.640Z,48.95
2023-05-08T05:19:26.684Z,48.88
2023-05-08T05:22:41.871Z,48.58
2023-05-08T05:26:07.601Z,48.52
2023-05-08T05:29:31.680Z,48.92
2023-05-08T05:32:48.388Z,49.03
2023-05-08T05:36:04.355Z,48.95
2023-05-08T05:39:26.352Z,49.60
2023-05-08T05:42:41.645Z,49.52
2023-05-08T05:46:05.501Z,49.22
2023-05-08T05:49:13.490Z,48.40
2023-05-08T05:52:20.512Z,48.11
2023-05-08T05:55:46.759Z,47.88
2023-05-08T05:59:03.853Z,48.29
2023-05-08T06:02:29.683Z,47.94
2023-05-08T06:05:59.849Z,46.92
2023-05-08T06:09:39.683Z,46.87
2023-05-08T06:12:58.738Z,46.29
2023-05-08T06:16:31.686Z,46.65
2023-05-08T06:19:54.768Z,45.76
2023-05-08T06:23:27.806Z,45.89
2023-05-08T06:26:40.783Z,46.06
2023-05-08T06:29:57.769Z,46.03
2023-05-08T06:33:12.592Z,45.88
2023-05-08T06:36:38.352Z,46.10
2023-05-08T06:40:10.791Z,45.51
2023-05-08T06:43:20.513Z,45.19
2023-05-08T06:46:40.310Z,45.31
2023-05-08T06:49:46.181Z,45.29
2023-05-08T06:52:51.699Z,45.17
2023-05-08T06:56:03.630Z,45.89
2023-05-08T06:59:35.966Z,45.97
2023-05-08T07:02:58.407Z,44.82
2023-05-08T07:06:20.119Z,45.55
2023-05-08T07:09:40.824Z,45.02
2023-05-08T07:13:04.448Z,43.90
2023-05-08T07:16:31.027Z,44.84
2023-05-08T07:19:44.000Z,44.93
2023-05-08T07:23:44.812Z,43.93
2023-05-08T07:26:50.807Z,44.05
2023-05-08T07:30:04.357Z,43.75
2023-05-08T07:33:17.588Z,44.56
2023-05-08T07:36:41.571Z,44.73
2023-05-08T07:40:06.002Z,43.73
2023-05-08T07:43:14.771Z,45.02
2023-05-08T07:46:39.190Z,44.42
2023-05-08T07:49:55.277Z,44.33
2023-05-08T07:53:14.711Z,43.96
2023-05-08T07:56:35.544Z,43.74
2023-05-08T07:59:44.010Z,43.62
2023-05-08T08:03:08.855Z,44.49
2023-05-08T08:06:23.900Z,44.72
2023-05-08T08:09:28.798Z,45.03
2023-05-08T08:12:37.800Z,44.20
2023-05-08T08:15:46.324Z,43.13
2023-05-08T08:18:55.125Z,44.30
2023-05-08T08:22:02.479Z,44.97
2023-05-08T08:25:13.938Z,44.82
2023-05-08T08:28:46.834Z,44.99
2023-05-08T08:32:19.285Z,43.47
2023-05-08T08:35:31.000Z,43.75
2023-05-08T08:38:52.711Z,41.79
2023-05-08T08:42:07.447Z,41.41
2023-05-08T08:45:29.527Z,40.83
2023-05-08T08:48:38.819Z,40.72
2023-05-08T08:51:53.337Z,39.49
2023-05-08T08:55:04.710Z,38.48
2023-05-08T08:58:36.667Z,39.26
2023-05-08T09:02:01.568Z,38.51
2023-05-08T09:05:21.993Z,38.07
2023-05-08T09:08:53.255Z,38.03
2023-05-08T09:12:16.929Z,37.88
2023-05-08T09:15:31.989Z,38.51
2023-05-08T09:18:54.039Z,37.11
2023-05-08T09:22:11.838Z,37.57
2023-05-08T09:25:24.368Z,36.27
2023-05-08T09:28:44.096Z,38.23
2023-05-08T09:32:05.314Z,38.73
2023-05-08T09:35:20.859Z,38.18
2023-05-08T09:38:41.482Z,37.36
2023-05-08T09:42:06.332Z,37.31
2023-05-08T09:45:36.091Z,37.90
2023-05-08T09:49:03.186Z,38.27
2023-05-08T09:52:17.033Z,37.63
2023-05-08T09:55:25.635Z,37.12
2023-05-08T09:58:42.906Z,36.69
2023-05-08T10:01:51.732Z,37.04
2023-05-08T10:05:00.967Z,36.70
2023-05-08T10:08:21.894Z,36.52
2023-05-08T10:11:34.255Z,36.81
2023-05-08T10:14:46.072Z,36.72
2023-05-08T10:18:06.952Z,36.05
2023-05-08T10:21:21.211Z,36.48
2023-05-08T10:24:38.123Z,36.02
2023-05-08T10:28:03.529Z,35.81
2023-05-08T10:31:12.393Z,34.30
2023-05-08T10:34:47.198Z,33.78
2023-05-08T10:38:03.913Z,32.33
2023-05-08T10:41:21.815Z,33.04
2023-05-08T10:44:31.420Z,31.73
2023-05-08T10:48:04.875Z,32.35
2023-05-08T10:51:43.984Z,32.07
2023-05-08T10:55:04.161Z,31.87
2023-05-08T10:58:37.702Z,32.36
2023-05-08T11:01:57.735Z,32.44
2023-05-08T11:05:19.897Z,31.30
2023-05-08T11:08:32.770Z,31.60
2023-05-08T11:11:55.732Z,30.51
2023-05-08T11:15:10.883Z,30.21
2023-05-08T11:18:41.885Z,30.17
2023-05-08T11:22:15.450Z,30.06
2023-05-08T11:25:51.530Z,30.62
2023-05-08T11:29:01.402Z,29.91
2023-05-08T11:32:11.819Z,29.04
2023-05-08T11:35:40.570Z,29.00
2023-05-08T11:39:22.463Z,28.48
2023-05-08T11:42:51.143Z,29.84
2023-05-08T11:46:13.231Z,29.00
2023-05-08T11:49:44.739Z,29.23
2023-05-08T11:53:04.840Z,30.38
2023-05-08T11:56:32.029Z,28.81
2023-05-08T12:05:36.045Z,25.11
2023-05-08T12:08:49.931Z,24.48
2023-05-08T12:12:07.928Z,23.86
2023-05-08T12:15:26.248Z,23.52
2023-05-08T12:18:40.822Z,22.83
2023-05-08T12:21:53.638Z,21.14
2023-05-08T12:25:08.544Z,20.92
2023-05-08T12:28:25.765Z,20.95
2023-05-08T12:31:50.717Z,20.52
2023-05-08T12:35:09.834Z,18.83
2023-05-08T12:38:32.504Z,18.77
2023-05-08T12:41:58.478Z,18.71
2023-05-08T12:45:29.083Z,17.64
2023-05-08T12:48:43.457Z,18.80
2023-05-08T12:52:10.102Z,17.81
2023-05-08T12:55:25.695Z,18.88
2023-05-08T12:58:56.696Z,17.16
2023-05-08T13:02:14.718Z,17.94
2023-05-08T13:05:29.795Z,17.00
2023-05-08T13:08:51.312Z,17.15
2023-05-08T13:12:12.657Z,17.24
2023-05-08T13:15:24.394Z,16.02
2023-05-08T13:24:00.976Z,16.26
2023-05-08T13:27:15.056Z,15.78
2023-05-08T13:30:40.845Z,14.89
2023-05-08T13:33:47.536Z,16.60
2023-05-08T13:36:58.191Z,15.97
2023-05-08T13:40:21.576Z,15.77
2023-05-08T13:43:59.829Z,15.56
2023-05-08T13:47:30.709Z,16.14
2023-05-08T13:51:02.358Z,15.20
2023-05-08T13:54:20.298Z,13.42
2023-05-08T13:57:40.600Z,12.68
2023-05-08T14:01:07.534Z,14.56
2023-05-08T14:04:25.472Z,14.03
2023-05-08T14:07:49.212Z,13.58
2023-05-08T14:11:04.499Z,13.32
2023-05-08T14:14:36.343Z,13.78
2023-05-08T14:17:45.686Z,13.78
2023-05-08T14:20:57.132Z,12.76
2023-05-08T14:24:23.216Z,13.64
2023-05-08T14:27:47.432Z,13.18
2023-05-08T14:31:01.479Z,12.78
2023-05-08T14:34:06.690Z,13.85
2023-05-08T14:37:19.294Z,13.87
2023-05-08T14:40:42.903Z,14.51
2023-05-08T14:44:06.660Z,13.85
2023-05-08T14:47:27.514Z,14.38
2023-05-08T14:50:41.175Z,15.27
2023-05-08T14:53:48.822Z,13.74
2023-05-08T14:56:54.515Z,13.92
2023-05-08T15:00:04.521Z,14.77
2023-05-08T15:03:17.441Z,14.88
2023-05-08T15:06:25.806Z,15.92
2023-05-08T15:09:34.891Z,15.79
2023-05-08T15:12:44.212Z,15.55
2023-05-08T15:16:08.494Z,15.04
2023-05-08T15:19:24.732Z,15.92
2023-05-08T15:22:32.098Z,15.43
2023-05-08T15:26:03.117Z,15.65
2023-05-08T15:29:27.215Z,15.70
2023-05-08T15:32:51.098Z,17.07
2023-05-08T15:36:18.358Z,18.65
2023-05-08T15:39:41.308Z,19.72
2023-05-08T15:48:36.196Z,21.36
2023-05-08T15:52:07.362Z,21.30
2023-05-08T15:55:23.513Z,22.41
2023-05-08T15:58:32.878Z,22.17
2023-05-08T16:01:42.298Z,22.51
2023-05-08T16:04:53.766Z,23.16
2023-05-08T16:08:12.853Z,24.63
2023-05-08T16:11:22.212Z,25.89
2023-05-08T16:14:49.504Z,24.67
2023-05-08T16:18:21.241Z,25.75
2023-05-08T16:21:41.036Z,26.10
2023-05-08T16:25:06.557Z,26.62
2023-05-08T16:28:33.278Z,26.35
2023-05-08T16:31:51.378Z,26.83
2023-05-08T16:35:03.071Z,27.86
2023-05-08T16:38:27.194Z,28.41
2023-05-08T16:41:34.816Z,28.88
2023-05-08T16:44:38.705Z,30.06
2023-05-08T16:47:54.133Z,30.56
2023-05-08T16:51:01.402Z,31.11
2023-05-08T16:59:59.807Z,26.88
2023-05-08T17:03:06.317Z,26.37
2023-05-08T17:06:16.718Z,26.39
2023-05-08T17:09:40.980Z,26.91
2023-05-08T17:12:45.194Z,26.29
2023-05-08T17:16:02.010Z,27.01
2023-05-08T17:19:21.160Z,28.67
2023-05-08T17:22:38.324Z,28.99
2023-05-08T17:26:08.917Z,29.92
2023-05-08T17:29:45.903Z,30.46
2023-05-08T17:32:52.424Z,31.06
2023-05-08T17:35:57.581Z,31.48
2023-05-08T17:39:05.210Z,32.14
2023-05-08T17:42:13.199Z,32.62
2023-05-08T17:45:27.860Z,32.82
2023-05-08T17:48:43.217Z,33.20
2023-05-08T17:51:58.906Z,34.00
2023-05-08T17:55:22.105Z,33.25
2023-05-08T17:58:35.626Z,33.77
2023-05-08T18:01:52.656Z,34.12
2023-05-08T18:05:18.862Z,34.29
2023-05-08T18:08:49.770Z,34.90
2023-05-08T18:12:18.316Z,34.42
2023-05-08T18:15:48.295Z,34.77
2023-05-08T18:18:52.886Z,34.94
2023-05-08T18:22:10.040Z,35.33
2023-05-08T18:25:31.738Z,36.04
2023-05-08T18:28:50.039Z,35.70
2023-05-08T18:32:13.011Z,36.53
2023-05-08T18:35:27.798Z,36.71
2023-05-08T18:38:33.771Z,36.97
2023-05-08T18:41:44.716Z,37.04
2023-05-08T18:45:05.426Z,37.09
2023-05-08T18:48:28.965Z,37.34
2023-05-08T18:51:53.766Z,36.83
2023-05-08T18:55:11.546Z,37.73
2023-05-08T18:58:34.610Z,38.30
2023-05-08T19:01:51.326Z,37.93
2023-05-08T19:05:03.252Z,38.41
2023-05-08T19:08:07.778Z,38.89
2023-05-08T19:11:11.762Z,38.53
2023-05-08T19:14:22.606Z,37.97
2023-05-08T19:17:27.502Z,38.85
2023-05-08T19:20:34.378Z,38.85
2023-05-08T19:23:45.760Z,38.95
2023-05-08T19:26:56.064Z,39.84
2023-05-08T19:30:06.238Z,39.40
2023-05-08T19:33:12.141Z,39.55
2023-05-08T19:36:19.551Z,39.52
2023-05-08T19:39:24.192Z,40.56
2023-05-08T19:42:35.459Z,40.04
2023-05-08T19:45:50.151Z,40.40
2023-05-08T19:49:06.502Z,40.96
2023-05-08T19:52:15.922Z,40.95
2023-05-08T19:55:20.017Z,40.18
2023-05-08T19:58:46.193Z,40.27
2023-05-08T20:01:55.340Z,40.15
2023-05-08T20:08:20.723Z,40.74
2023-05-08T20:11:27.355Z,40.67
2023-05-08T20:14:32.509Z,40.40
2023-05-08T20:17:36.554Z,40.65
2023-05-08T20:21:00.578Z,40.34
2023-05-08T20:24:17.751Z,40.70
2023-05-08T20:27:47.627Z,41.10
2023-05-08T20:31:12.488Z,40.91
2023-05-08T20:34:44.461Z,41.58
2023-05-08T20:38:07.713Z,41.55
2023-05-08T20:41:30.799Z,41.66
2023-05-08T20:44:53.937Z,41.50
2023-05-08T20:47:58.820Z,41.53
2023-05-08T20:51:14.870Z,41.70
2023-05-08T20:54:42.347Z,41.99
2023-05-08T20:58:00.527Z,41.73
2023-05-08T21:01:08.842Z,41.95
2023-05-08T21:04:19.306Z,41.99
2023-05-08T21:07:39.603Z,41.75
2023-05-08T21:10:54.783Z,41.63
2023-05-08T21:14:14.100Z,41.54
2023-05-08T21:17:37.328Z,41.70
2023-05-08T21:20:59.805Z,41.77
2023-05-08T21:24:23.489Z,42.04
2023-05-08T21:27:33.444Z,42.06
2023-05-08T21:30:42.944Z,41.57
2023-05-08T21:33:50.467Z,42.29
2023-05-08T21:36:56.901Z,42.19
2023-05-08T21:40:19.524Z,41.61
2023-05-08T21:43:43.406Z,42.13
2023-05-08T21:47:05.737Z,42.76
2023-05-08T21:50:23.393Z,42.85
2023-05-08T21:53:35.318Z,42.63
2023-05-08T21:56:40.488Z,42.96
2023-05-08T21:59:51.157Z,43.09
2023-05-08T22:03:03.590Z,42.99
2023-05-08T22:06:08.428Z,42.49
2023-05-08T22:09:22.185Z,42.86
2023-05-08T22:12:31.982Z,43.51
2023-05-08T22:15:39.480Z,43.13
2023-05-08T22:18:44.526Z,43.29
2023-05-08T22:21:57.101Z,43.17
2023-05-08T22:25:13.605Z,43.50
2023-05-08T22:28:36.663Z,43.55
2023-05-08T22:31:48.777Z,43.19
2023-05-08T22:34:59.275Z,43.14
2023-05-08T22:38:22.363Z,43.47
2023-05-08T22:42:01.156Z,43.48
2023-05-08T22:45:10.952Z,43.98
2023-05-08T22:48:31.497Z,43.53
2023-05-08T22:52:01.226Z,43.46
2023-05-08T22:55:26.442Z,43.87
2023-05-08T22:58:35.036Z,43.54
2023-05-08T23:01:40.008Z,44.58
2023-05-08T23:04:50.442Z,44.18
2023-05-08T23:08:14.197Z,44.22
2023-05-08T23:11:34.050Z,44.10
2023-05-08T23:14:51.837Z,44.06
2023-05-08T23:18:10.233Z,44.89
2023-05-08T23:21:41.677Z,45.09
2023-05-08T23:24:58.641Z,45.19
2023-05-08T23:28:29.205Z,45.41
2023-05-08T23:31:48.960Z,45.38
2023-05-08T23:35:06.706Z,45.47
2023-05-08T23:38:23.450Z,45.27
2023-05-08T23:41:28.758Z,45.41
2023-05-08T23:44:36.700Z,45.88
2023-05-08T23:47:48.174Z,46.08
2023-05-08T23:51:10.353Z,45.93
2023-05-08T23:54:31.186Z,45.44
2023-05-08T23:57:48.260Z,45.65
